Time;durP1;ratioP1;P1;durP2;ratioP2;P2;SDS_P1;SDS_P2;PMS_P1;PMS_P2;Temp;Humidity;BMP_temperature;BMP_pressure;BME280_temperature;BME280_humidity;BME280_pressure;Samples;Min_cycle;Max_cycle;Signal;HPM_P1;HPM_P2
2021/07/20 00:00:13;;;;;;;14.77;9.10;;;19.80;99.90;;;;;;5079979;28;20985;-81
2021/07/20 00:02:43;;;;;;;13.00;10.10;;;19.80;99.90;;;;;;5076126;28;20469;-77
2021/07/20 00:05:11;;;;;;;16.23;10.40;;;19.80;99.90;;;;;;5075099;28;20549;-76
2021/07/20 00:07:39;;;;;;;13.60;9.70;;;19.70;99.90;;;;;;5073430;28;20920;-76
2021/07/20 00:10:09;;;;;;;14.10;9.40;;;19.60;99.90;;;;;;5073851;28;20465;-77
2021/07/20 00:12:36;;;;;;;15.50;9.40;;;19.50;99.90;;;;;;5073832;28;20452;-76
2021/07/20 00:15:05;;;;;;;13.20;9.20;;;19.50;99.90;;;;;;5073988;28;20451;-78
2021/07/20 00:17:32;;;;;;;15.97;10.60;;;19.40;99.90;;;;;;5074473;28;20483;-77
2021/07/20 00:20:00;;;;;;;13.40;9.30;;;19.30;99.90;;;;;;5073623;28;20871;-77
2021/07/20 00:22:27;;;;;;;12.25;8.95;;;19.30;99.90;;;;;;5073741;28;20445;-77
2021/07/20 00:24:54;;;;;;;13.20;9.13;;;19.20;99.90;;;;;;5074000;28;20585;-78
2021/07/20 00:27:20;;;;;;;14.65;9.60;;;19.20;99.90;;;;;;5074429;28;20294;-77
2021/07/20 00:29:47;;;;;;;14.83;9.93;;;19.30;99.90;;;;;;5073057;28;20322;-77
2021/07/20 00:32:14;;;;;;;11.43;9.02;;;19.30;99.90;;;;;;5073066;28;20538;-76
2021/07/20 00:34:41;;;;;;;12.87;9.60;;;19.30;99.90;;;;;;5078117;28;20228;-80
2021/07/20 00:37:09;;;;;;;12.10;8.70;;;19.30;99.90;;;;;;5082393;28;20481;-80
2021/07/20 00:39:36;;;;;;;14.27;10.20;;;19.30;99.90;;;;;;5082218;28;20943;-81
2021/07/20 00:42:03;;;;;;;14.50;9.80;;;19.30;99.90;;;;;;5081807;28;20203;-80
2021/07/20 00:44:30;;;;;;;15.13;9.77;;;19.30;99.90;;;;;;5082031;28;20471;-80
2021/07/20 00:46:57;;;;;;;13.90;9.97;;;19.40;99.90;;;;;;5082035;28;20208;-81
2021/07/20 00:49:24;;;;;;;14.47;9.10;;;19.60;99.90;;;;;;5079250;28;20450;-78
2021/07/20 00:51:51;;;;;;;12.25;8.95;;;19.50;99.90;;;;;;5074452;28;20970;-78
2021/07/20 00:54:19;;;;;;;14.15;9.90;;;19.30;99.90;;;;;;5074459;28;20204;-78
2021/07/20 00:56:46;;;;;;;15.02;9.88;;;19.30;99.90;;;;;;5074539;28;20235;-78
2021/07/20 00:59:14;;;;;;;12.43;9.03;;;19.30;99.90;;;;;;5074354;28;20258;-78
2021/07/20 01:01:41;;;;;;;14.35;9.25;;;19.30;99.90;;;;;;5073865;28;20492;-77
2021/07/20 01:04:07;;;;;;;15.90;9.70;;;19.20;99.90;;;;;;5073994;28;20310;-77
2021/07/20 01:06:35;;;;;;;14.07;9.57;;;19.20;99.90;;;;;;5073910;28;20722;-78
2021/07/20 01:09:03;;;;;;;14.45;9.13;;;19.30;99.90;;;;;;5074242;28;20200;-78
2021/07/20 01:11:33;;;;;;;14.20;9.17;;;19.30;99.90;;;;;;5073872;28;20227;-78
2021/07/20 01:14:03;;;;;;;13.67;9.27;;;19.50;99.90;;;;;;5072977;28;20441;-77
2021/07/20 01:16:32;;;;;;;14.50;9.80;;;19.50;99.90;;;;;;5073531;28;20567;-77
2021/07/20 01:18:59;;;;;;;14.30;10.20;;;19.30;99.90;;;;;;5073707;28;20931;-77
2021/07/20 01:21:28;;;;;;;12.20;9.00;;;19.30;99.90;;;;;;5073384;28;20278;-77
2021/07/20 01:23:57;;;;;;;13.35;9.88;;;19.20;99.90;;;;;;5073868;28;20454;-77
2021/07/20 01:26:24;;;;;;;15.45;9.18;;;19.10;99.90;;;;;;5073379;28;20208;-77
2021/07/20 01:28:52;;;;;;;14.00;8.10;;;19.00;99.90;;;;;;5073182;28;20657;-77
2021/07/20 01:31:22;;;;;;;13.73;9.23;;;19.00;99.90;;;;;;5073472;28;20227;-78
2021/07/20 01:33:52;;;;;;;13.50;9.23;;;19.10;99.90;;;;;;5073797;28;20302;-78
2021/07/20 01:36:20;;;;;;;16.10;9.15;;;19.20;99.90;;;;;;5073852;28;20641;-77
2021/07/20 01:38:48;;;;;;;14.27;9.18;;;19.30;99.90;;;;;;5073215;28;20212;-77
2021/07/20 01:41:18;;;;;;;12.32;9.10;;;19.40;99.90;;;;;;5073097;28;20225;-77
2021/07/20 01:43:50;;;;;;;13.67;8.97;;;19.50;99.90;;;;;;5073637;28;20204;-76
2021/07/20 01:46:19;;;;;;;12.57;8.80;;;19.50;99.90;;;;;;5073590;28;20534;-77
2021/07/20 01:48:50;;;;;;;15.10;9.03;;;19.40;99.90;;;;;;5073665;28;20676;-76
2021/07/20 01:51:18;;;;;;;11.68;8.00;;;19.50;99.90;;;;;;5073041;28;20959;-77
2021/07/20 01:53:45;;;;;;;11.60;7.87;;;19.40;99.90;;;;;;5073424;28;20201;-77
2021/07/20 01:56:13;;;;;;;10.77;8.37;;;19.40;99.90;;;;;;5073456;28;20788;-77
2021/07/20 01:58:42;;;;;;;14.10;9.35;;;19.30;99.90;;;;;;5073568;28;21069;-77
2021/07/20 02:01:12;;;;;;;10.47;8.60;;;19.20;99.90;;;;;;5073018;28;20736;-77
2021/07/20 02:04:02;;;;;;;13.60;9.30;;;19.00;99.90;;;;;;5073775;28;20540;-76
2021/07/20 02:09:18;;;;;;;12.70;8.25;;;18.90;99.90;;;;;;5073889;28;20775;-77
2021/07/20 02:11:46;;;;;;;13.35;9.52;;;19.00;99.90;;;;;;5073418;28;20235;-77
2021/07/20 02:14:16;;;;;;;13.55;8.75;;;19.10;99.90;;;;;;5074418;28;20246;-77
2021/07/20 02:16:47;;;;;;;12.35;8.43;;;19.10;99.90;;;;;;5073883;28;20207;-77
2021/07/20 02:19:17;;;;;;;11.88;8.65;;;19.10;99.90;;;;;;5073444;28;20565;-77
2021/07/20 02:21:50;;;;;;;12.40;8.50;;;19.20;99.90;;;;;;5073214;28;20230;-77
2021/07/20 02:24:19;;;;;;;13.30;8.85;;;19.00;99.90;;;;;;5073990;28;20203;-77
2021/07/20 02:26:48;;;;;;;14.05;8.82;;;19.00;99.90;;;;;;5076688;28;20230;-77
2021/07/20 02:29:17;;;;;;;13.25;8.13;;;18.90;99.90;;;;;;5076507;28;20207;-77
2021/07/20 02:31:46;;;;;;;11.15;8.30;;;19.00;99.90;;;;;;5076564;28;20335;-77
2021/07/20 02:34:14;;;;;;;12.57;8.75;;;19.10;99.90;;;;;;5076877;28;20225;-77
2021/07/20 02:36:41;;;;;;;14.90;9.80;;;19.10;99.90;;;;;;5076753;28;20290;-76
2021/07/20 02:39:09;;;;;;;12.80;8.82;;;19.10;99.90;;;;;;5076363;28;20641;-76
2021/07/20 02:41:37;;;;;;;14.15;9.23;;;19.00;99.90;;;;;;5076204;28;20219;-77
2021/07/20 02:44:06;;;;;;;12.13;9.15;;;18.90;99.90;;;;;;5076457;28;20209;-77
2021/07/20 02:46:36;;;;;;;11.98;9.27;;;18.90;99.90;;;;;;5076565;28;20225;-78
2021/07/20 02:49:04;;;;;;;12.88;8.27;;;18.90;99.90;;;;;;5076644;28;20557;-78
2021/07/20 02:51:32;;;;;;;14.88;9.52;;;18.80;99.90;;;;;;5075678;28;20585;-77
2021/07/20 02:54:00;;;;;;;13.40;8.65;;;18.70;99.90;;;;;;5076512;28;20206;-77
2021/07/20 02:56:28;;;;;;;12.70;8.77;;;18.60;99.90;;;;;;5076216;28;20210;-77
2021/07/20 02:59:00;;;;;;;13.20;9.43;;;18.60;99.90;;;;;;5075684;28;20709;-77
2021/07/20 03:01:28;;;;;;;14.30;9.27;;;18.70;99.90;;;;;;5075827;28;20318;-77
2021/07/20 03:03:56;;;;;;;11.95;8.05;;;18.60;99.90;;;;;;5076307;28;20299;-77
2021/07/20 03:06:26;;;;;;;13.75;8.70;;;18.60;99.90;;;;;;5075532;28;20658;-77
2021/07/20 03:08:58;;;;;;;12.23;8.40;;;18.60;99.90;;;;;;5076001;28;20225;-77
2021/07/20 03:11:29;;;;;;;15.50;9.40;;;18.50;99.90;;;;;;5075474;28;20228;-77
2021/07/20 03:14:01;;;;;;;14.82;8.45;;;18.40;99.90;;;;;;5076133;28;20639;-77
2021/07/20 03:16:28;;;;;;;12.43;8.07;;;18.50;99.90;;;;;;5076040;28;20202;-77
2021/07/20 03:18:57;;;;;;;10.10;7.20;;;18.50;99.90;;;;;;5075620;28;20531;-78
2021/07/20 03:21:25;;;;;;;10.85;8.35;;;18.60;99.90;;;;;;5075575;28;20227;-77
2021/07/20 03:23:52;;;;;;;13.50;9.10;;;18.60;99.90;;;;;;5075664;28;20294;-77
2021/07/20 03:26:20;;;;;;;14.00;8.70;;;18.40;99.90;;;;;;5075364;28;20661;-77
2021/07/20 03:28:49;;;;;;;12.68;8.35;;;18.40;99.90;;;;;;5075350;28;20557;-77
2021/07/20 03:31:17;;;;;;;12.15;7.80;;;18.50;99.90;;;;;;5075117;28;20233;-77
2021/07/20 03:33:45;;;;;;;13.93;8.82;;;18.50;99.90;;;;;;5075502;28;20615;-77
2021/07/20 03:36:14;;;;;;;13.32;8.98;;;18.50;99.90;;;;;;5074679;28;20213;-77
2021/07/20 03:38:41;;;;;;;11.65;7.70;;;18.50;99.90;;;;;;5075633;28;20223;-77
2021/07/20 03:41:09;;;;;;;12.73;8.45;;;18.20;99.90;;;;;;5074793;28;20584;-77
2021/07/20 03:43:37;;;;;;;13.35;8.63;;;18.20;99.90;;;;;;5075501;28;20294;-77
2021/07/20 03:46:04;;;;;;;12.80;8.82;;;18.20;99.90;;;;;;5075369;28;20635;-77
2021/07/20 03:48:32;;;;;;;13.43;8.57;;;18.20;99.90;;;;;;5075211;28;20290;-77
2021/07/20 03:51:00;;;;;;;13.50;8.50;;;18.30;99.90;;;;;;5074887;28;20380;-77
2021/07/20 03:53:28;;;;;;;13.07;8.70;;;18.30;99.90;;;;;;5075166;28;20728;-77
2021/07/20 03:55:59;;;;;;;14.77;8.65;;;18.30;99.90;;;;;;5075297;28;20199;-77
2021/07/20 03:58:26;;;;;;;10.07;7.47;;;18.30;99.90;;;;;;5074824;28;20314;-77
2021/07/20 04:00:57;;;;;;;12.85;8.35;;;18.30;99.90;;;;;;5074697;28;20574;-77
2021/07/20 04:03:26;;;;;;;17.35;8.20;;;18.30;99.90;;;;;;5074976;28;20242;-77
2021/07/20 04:05:56;;;;;;;14.25;9.80;;;18.30;99.90;;;;;;5075054;28;20607;-77
2021/07/20 04:08:24;;;;;;;12.60;8.23;;;18.40;99.90;;;;;;5075019;28;20198;-76
2021/07/20 04:10:54;;;;;;;10.95;8.40;;;18.40;99.90;;;;;;5074161;28;20223;-76
2021/07/20 04:13:24;;;;;;;12.40;8.15;;;18.40;99.90;;;;;;5074685;28;20210;-77
2021/07/20 04:15:54;;;;;;;10.20;7.80;;;18.30;99.90;;;;;;5074500;28;20645;-77
2021/07/20 04:18:22;;;;;;;14.23;8.65;;;18.30;99.90;;;;;;5074695;28;20222;-77
2021/07/20 04:20:49;;;;;;;12.00;8.48;;;18.20;99.90;;;;;;5074011;28;20701;-77
2021/07/20 04:23:19;;;;;;;12.82;8.10;;;18.30;99.90;;;;;;5074413;28;20229;-78
2021/07/20 04:25:47;;;;;;;10.45;7.85;;;18.30;99.90;;;;;;5074202;28;20648;-77
2021/07/20 04:28:16;;;;;;;11.88;8.30;;;18.30;99.90;;;;;;5074525;28;20709;-77
2021/07/20 04:30:45;;;;;;;13.63;9.13;;;18.40;99.90;;;;;;5073817;28;20601;-77
2021/07/20 04:33:15;;;;;;;11.60;8.63;;;18.30;99.90;;;;;;5074547;28;20202;-77
2021/07/20 04:35:44;;;;;;;11.48;7.85;;;18.20;99.90;;;;;;5074562;28;20205;-77
2021/07/20 04:38:13;;;;;;;11.93;8.05;;;18.20;99.90;;;;;;5073858;28;20318;-77
2021/07/20 04:40:40;;;;;;;12.25;8.02;;;18.30;99.90;;;;;;5073922;28;20273;-77
2021/07/20 04:43:08;;;;;;;10.88;8.05;;;18.30;99.90;;;;;;5074250;28;20289;-77
2021/07/20 04:45:39;;;;;;;10.30;7.53;;;18.30;99.90;;;;;;5073850;28;20297;-77
2021/07/20 04:48:07;;;;;;;13.93;8.02;;;18.40;99.90;;;;;;5073678;28;20198;-77
2021/07/20 04:50:35;;;;;;;12.90;8.65;;;18.40;99.90;;;;;;5073988;28;20229;-77
2021/07/20 04:53:04;;;;;;;13.05;8.30;;;18.40;99.90;;;;;;5073825;28;20213;-77
2021/07/20 04:55:34;;;;;;;12.35;8.32;;;18.30;99.90;;;;;;5074371;28;20206;-77
2021/07/20 04:58:01;;;;;;;14.02;7.95;;;18.30;99.90;;;;;;5074464;28;20261;-77
2021/07/20 05:00:28;;;;;;;15.07;9.15;;;18.30;99.90;;;;;;5073584;28;20649;-77
2021/07/20 05:02:59;;;;;;;12.23;8.45;;;18.30;99.90;;;;;;5073550;28;20225;-77
2021/07/20 05:05:27;;;;;;;10.95;7.80;;;18.30;99.90;;;;;;5073561;28;20210;-77
2021/07/20 05:07:54;;;;;;;10.57;7.70;;;18.30;99.90;;;;;;5073848;28;20207;-77
2021/07/20 05:10:22;;;;;;;11.65;8.32;;;18.40;99.90;;;;;;5073552;28;20218;-77
2021/07/20 05:12:49;;;;;;;11.43;8.15;;;18.30;99.90;;;;;;5073988;28;20249;-77
2021/07/20 05:15:18;;;;;;;12.73;8.73;;;18.10;99.90;;;;;;5073457;28;20293;-77
2021/07/20 05:17:45;;;;;;;11.60;7.95;;;18.00;99.90;;;;;;5073539;28;20232;-77
2021/07/20 05:20:16;;;;;;;14.43;8.80;;;18.00;99.90;;;;;;5073202;28;20218;-77
2021/07/20 05:22:44;;;;;;;11.38;7.82;;;18.00;99.90;;;;;;5073880;28;20213;-77
2021/07/20 05:25:12;;;;;;;14.85;8.55;;;18.10;99.90;;;;;;5073876;28;20310;-77
2021/07/20 05:27:42;;;;;;;13.27;8.40;;;18.00;99.90;;;;;;5073656;28;20537;-77
2021/07/20 05:30:10;;;;;;;12.00;8.23;;;18.10;99.90;;;;;;5073245;28;20234;-77
2021/07/20 05:32:40;;;;;;;14.13;8.40;;;18.10;99.90;;;;;;5073649;28;20206;-77
2021/07/20 05:35:11;;;;;;;10.93;7.80;;;18.20;99.90;;;;;;5073652;28;20206;-77
2021/07/20 05:37:40;;;;;;;11.95;8.50;;;18.30;99.90;;;;;;5073883;28;20663;-76
2021/07/20 05:40:08;;;;;;;11.05;7.93;;;18.30;99.90;;;;;;5073389;28;20288;-77
2021/07/20 05:42:36;;;;;;;11.15;7.90;;;18.30;99.90;;;;;;5073377;28;20576;-77
2021/07/20 05:45:09;;;;;;;11.40;7.95;;;18.30;99.90;;;;;;5073203;28;20229;-77
2021/07/20 05:47:39;;;;;;;12.35;8.85;;;18.20;99.90;;;;;;5073336;28;20202;-77
2021/07/20 05:50:07;;;;;;;14.45;8.82;;;18.40;99.90;;;;;;5073302;28;20222;-77
2021/07/20 05:52:36;;;;;;;8.93;6.45;;;18.50;99.90;;;;;;5073636;28;20230;-77
2021/07/20 05:55:06;;;;;;;10.90;7.68;;;18.40;99.90;;;;;;5073460;28;20203;-77
2021/07/20 05:57:34;;;;;;;12.32;8.18;;;18.40;99.90;;;;;;5073532;28;20534;-77
2021/07/20 06:00:01;;;;;;;11.80;7.78;;;18.40;99.90;;;;;;5075168;28;20237;-77
2021/07/20 06:02:31;;;;;;;10.70;7.75;;;18.20;99.90;;;;;;5077546;28;20234;-77
2021/07/20 06:05:01;;;;;;;10.40;7.53;;;18.30;99.90;;;;;;5077290;28;20206;-77
2021/07/20 06:07:29;;;;;;;12.82;7.70;;;18.40;99.90;;;;;;5076941;28;20207;-77
2021/07/20 06:09:57;;;;;;;11.57;7.97;;;18.40;99.90;;;;;;5076636;28;20684;-77
2021/07/20 06:12:26;;;;;;;11.98;7.43;;;18.50;99.90;;;;;;5077338;28;20202;-77
2021/07/20 06:14:55;;;;;;;11.02;8.70;;;18.50;99.90;;;;;;5076657;28;20206;-77
2021/07/20 06:17:23;;;;;;;13.10;7.97;;;18.40;99.90;;;;;;5077167;28;20241;-77
2021/07/20 06:19:51;;;;;;;11.40;7.63;;;18.50;99.90;;;;;;5077002;28;20226;-77
2021/07/20 06:22:22;;;;;;;11.65;8.77;;;18.60;99.90;;;;;;5076515;28;20202;-77
2021/07/20 06:24:49;;;;;;;13.00;8.35;;;18.70;99.90;;;;;;5076883;28;20202;-77
2021/07/20 06:27:19;;;;;;;11.07;7.43;;;18.80;99.90;;;;;;5077101;28;20385;-77
2021/07/20 06:29:52;;;;;;;10.18;7.55;;;18.70;99.90;;;;;;5076492;28;20639;-77
2021/07/20 06:32:19;;;;;;;13.77;8.65;;;18.80;99.90;;;;;;5076864;28;20293;-77
2021/07/20 06:34:46;;;;;;;10.40;8.07;;;18.90;99.90;;;;;;5076367;28;20297;-77
2021/07/20 06:37:14;;;;;;;11.27;8.27;;;18.80;99.90;;;;;;5076615;28;20452;-77
2021/07/20 06:39:42;;;;;;;11.73;8.32;;;18.70;99.90;;;;;;5076468;28;20804;-77
2021/07/20 06:42:12;;;;;;;12.90;8.75;;;18.80;99.90;;;;;;5076411;28;20213;-77
2021/07/20 06:44:40;;;;;;;13.27;8.50;;;18.80;99.90;;;;;;5076580;28;20290;-77
2021/07/20 06:47:10;;;;;;;10.13;7.80;;;18.80;99.90;;;;;;5076207;28;20198;-77
2021/07/20 06:49:38;;;;;;;10.88;7.82;;;19.00;99.90;;;;;;5076250;28;20451;-77
2021/07/20 06:52:06;;;;;;;12.50;7.75;;;18.80;99.90;;;;;;5076019;28;20649;-77
2021/07/20 06:54:33;;;;;;;10.93;7.78;;;18.80;99.90;;;;;;5076334;28;20238;-77
2021/07/20 06:57:04;;;;;;;11.32;8.38;;;18.70;99.90;;;;;;5076387;28;20210;-77
2021/07/20 06:59:34;;;;;;;12.23;8.10;;;18.50;99.90;;;;;;5076025;28;20227;-76
2021/07/20 07:02:02;;;;;;;13.35;8.70;;;18.50;99.90;;;;;;5076049;28;20257;-77
2021/07/20 07:04:42;;;;;;;10.90;7.38;;;18.60;99.90;;;;;;5076303;28;20207;-77
2021/07/20 07:07:10;;;;;;;12.35;8.60;;;18.80;99.90;;;;;;5077076;28;20204;-77
2021/07/20 07:09:37;;;;;;;11.40;7.80;;;19.30;99.90;;;;;;5076582;28;20552;-77
2021/07/20 07:12:06;;;;;;;11.47;8.10;;;19.60;99.90;;;;;;5074917;28;20530;-77
2021/07/20 07:14:35;;;;;;;10.60;7.67;;;19.60;99.90;;;;;;5076158;28;20447;-77
2021/07/20 07:17:03;;;;;;;10.30;7.70;;;19.50;99.90;;;;;;5076237;28;20450;-77
2021/07/20 07:19:31;;;;;;;11.30;7.57;;;19.40;99.90;;;;;;5075888;28;20574;-76
2021/07/20 07:21:59;;;;;;;11.93;7.90;;;19.40;99.90;;;;;;5076101;28;20465;-77
2021/07/20 07:24:26;;;;;;;11.30;7.30;;;19.50;99.90;;;;;;5076084;28;20983;-77
2021/07/20 07:26:54;;;;;;;15.33;8.67;;;19.70;99.90;;;;;;5076043;28;20909;-77
2021/07/20 07:29:22;;;;;;;10.83;7.40;;;20.10;99.90;;;;;;5076409;28;20461;-77
2021/07/20 07:31:50;;;;;;;10.10;7.27;;;20.40;99.90;;;;;;5080699;28;20466;-78
2021/07/20 07:34:17;;;;;;;9.93;6.73;;;20.60;99.90;;;;;;5079811;28;20467;-79
2021/07/20 07:36:47;;;;;;;10.47;7.20;;;20.50;99.90;;;;;;5079610;28;20949;-78
2021/07/20 07:39:15;;;;;;;11.60;7.93;;;20.60;99.90;;;;;;5079161;28;20487;-77
2021/07/20 07:41:45;;;;;;;10.57;7.50;;;20.70;99.90;;;;;;5079192;28;20477;-78
2021/07/20 07:44:13;;;;;;;11.70;7.30;;;20.90;99.90;;;;;;5080552;28;20462;-79
2021/07/20 07:46:42;;;;;;;10.43;7.17;;;21.10;99.90;;;;;;5081211;28;20498;-77
2021/07/20 07:49:09;;;;;;;10.20;7.57;;;21.00;99.90;;;;;;5099134;28;21329;-81
2021/07/20 07:51:38;;;;;;;9.70;6.90;;;21.00;99.90;;;;;;5096298;28;20471;-85
2021/07/20 07:54:06;;;;;;;10.27;7.90;;;21.20;99.90;;;;;;5095975;28;20456;-84
2021/07/20 07:56:33;;;;;;;9.20;7.30;;;22.10;99.90;;;;;;5096834;28;20448;-80
2021/07/20 07:59:01;;;;;;;7.30;6.50;;;22.60;99.90;;;;;;5100239;28;20480;-81
2021/07/20 08:01:29;;;;;;;9.97;7.83;;;23.80;99.90;;;;;;5100777;28;20492;-81
2021/07/20 08:03:58;;;;;;;8.53;7.60;;;25.10;98.10;;;;;;5100180;28;20440;-82
2021/07/20 08:06:29;;;;;;;8.43;6.70;;;25.90;95.20;;;;;;5100651;28;20441;-82
2021/07/20 08:08:59;;;;;;;9.00;6.90;;;25.70;93.60;;;;;;5100807;28;20475;-82
2021/07/20 08:11:29;;;;;;;10.00;8.20;;;25.40;93.30;;;;;;5100727;28;20494;-79
2021/07/20 08:13:59;;;;;;;12.83;7.80;;;24.60;94.60;;;;;;5101860;28;20441;-80
2021/07/20 08:16:28;;;;;;;8.53;7.00;;;24.00;96.00;;;;;;5099683;28;20878;-78
2021/07/20 08:18:56;;;;;;;11.90;8.83;;;23.50;96.30;;;;;;5100937;28;20550;-81
2021/07/20 08:21:27;;;;;;;9.90;6.57;;;23.60;96.70;;;;;;5105942;28;20546;-81
2021/07/20 08:23:55;;;;;;;9.07;7.37;;;24.90;96.20;;;;;;5106792;28;20441;-81
2021/07/20 08:26:29;;;;;;;9.43;6.70;;;25.50;94.20;;;;;;5105782;28;20846;-80
2021/07/20 08:29:02;;;;;;;8.50;6.40;;;25.80;92.50;;;;;;5106631;28;20501;-81
2021/07/20 08:31:34;;;;;;;10.67;8.13;;;25.90;91.80;;;;;;5105725;28;20805;-81
2021/07/20 08:34:04;;;;;;;9.43;7.10;;;25.90;91.80;;;;;;5105407;28;20546;-81
2021/07/20 08:36:32;;;;;;;9.03;7.20;;;26.60;92.60;;;;;;5105284;28;20449;-81
2021/07/20 08:39:02;;;;;;;7.23;6.30;;;27.50;90.60;;;;;;5106212;28;20577;-81
2021/07/20 08:41:40;;;;;;;8.07;6.60;;;28.30;88.50;;;;;;5106736;28;20491;-81
2021/07/20 08:44:24;;;;;;;7.20;6.50;;;28.90;79.80;;;;;;5107656;28;20447;-81
2021/07/20 08:47:01;;;;;;;7.53;6.43;;;28.90;77.10;;;;;;5107641;28;20474;-81
2021/07/20 08:49:46;;;;;;;8.30;6.83;;;29.20;74.80;;;;;;5107127;28;20515;-81
2021/07/20 08:52:18;;;;;;;7.13;6.43;;;29.00;72.80;;;;;;5107102;28;20470;-81
2021/07/20 08:54:57;;;;;;;7.03;6.23;;;29.20;72.30;;;;;;5107781;28;20452;-81
2021/07/20 08:57:30;;;;;;;7.93;6.80;;;29.80;73.40;;;;;;5106943;28;20507;-81
2021/07/20 09:00:05;;;;;;;8.70;7.20;;;30.00;67.60;;;;;;5100173;28;20571;-79
2021/07/20 09:02:39;;;;;;;7.47;6.77;;;29.40;64.90;;;;;;5096723;28;20447;-79
2021/07/20 09:05:14;;;;;;;10.33;6.90;;;28.20;69.60;;;;;;5097594;28;20440;-78
2021/07/20 09:07:43;;;;;;;7.90;7.10;;;28.00;72.30;;;;;;5097500;28;20851;-78
2021/07/20 09:10:13;;;;;;;8.17;7.00;;;28.20;72.40;;;;;;5097323;28;20462;-79
2021/07/20 09:12:49;;;;;;;9.63;7.00;;;28.80;72.10;;;;;;5097661;28;20449;-79
2021/07/20 09:15:20;;;;;;;8.70;6.70;;;28.70;68.00;;;;;;5096923;28;20450;-78
2021/07/20 09:17:54;;;;;;;6.90;6.13;;;29.10;66.30;;;;;;5096742;28;20491;-79
2021/07/20 09:20:27;;;;;;;8.90;6.23;;;29.10;64.40;;;;;;5096944;28;21059;-79
2021/07/20 09:22:57;;;;;;;8.70;6.77;;;28.70;67.50;;;;;;5099163;28;20500;-79
2021/07/20 09:25:31;;;;;;;10.33;7.33;;;29.10;65.90;;;;;;5099650;28;20530;-80
2021/07/20 09:28:04;;;;;;;8.97;7.47;;;29.20;63.70;;;;;;5098725;28;20438;-78
2021/07/20 09:30:33;;;;;;;8.43;7.50;;;28.90;63.20;;;;;;5096629;28;20979;-78
2021/07/20 09:33:14;;;;;;;8.30;7.20;;;29.10;63.60;;;;;;5097193;28;20851;-78
2021/07/20 09:35:48;;;;;;;8.70;6.97;;;29.40;65.00;;;;;;5100639;28;20490;-78
2021/07/20 09:38:35;;;;;;;7.43;6.63;;;29.70;65.30;;;;;;5101212;28;20810;-79
2021/07/20 09:41:20;;;;;;;10.50;8.13;;;31.00;62.30;;;;;;5101467;28;20566;-79
2021/07/20 09:43:53;;;;;;;7.57;6.77;;;30.90;59.70;;;;;;5101847;28;20531;-78
2021/07/20 09:46:27;;;;;;;8.13;7.43;;;30.90;59.40;;;;;;5101602;28;20523;-78
2021/07/20 09:49:00;;;;;;;9.60;6.67;;;30.90;58.90;;;;;;5101486;28;20532;-79
2021/07/20 09:51:56;;;;;;;8.83;7.90;;;31.20;60.30;;;;;;5101198;28;20460;-79
2021/07/20 09:54:41;;;;;;;8.83;7.60;;;31.30;59.20;;;;;;5102870;28;20531;-80
2021/07/20 09:57:17;;;;;;;10.93;7.53;;;30.00;59.30;;;;;;5105697;28;20803;-80
2021/07/20 09:59:58;;;;;;;9.07;7.97;;;28.80;62.60;;;;;;5106555;28;20471;-80
2021/07/20 10:02:34;;;;;;;8.80;7.90;;;29.30;65.20;;;;;;5106540;28;20449;-80
2021/07/20 10:05:05;;;;;;;10.83;8.97;;;29.10;63.20;;;;;;5106886;28;20500;-80
2021/07/20 10:07:37;;;;;;;9.10;8.20;;;29.90;61.10;;;;;;5105471;28;20443;-80
2021/07/20 10:10:09;;;;;;;8.90;7.70;;;29.80;59.20;;;;;;5106668;28;20484;-79
2021/07/20 10:12:50;;;;;;;9.47;7.90;;;29.20;62.00;;;;;;5106109;28;20508;-79
2021/07/20 10:15:23;;;;;;;10.17;7.63;;;28.00;65.40;;;;;;5105247;28;20439;-80
2021/07/20 10:17:56;;;;;;;8.03;7.20;;;27.80;65.30;;;;;;5105653;28;20440;-80
2021/07/20 10:20:28;;;;;;;9.00;7.70;;;27.60;68.00;;;;;;5105244;28;20502;-80
2021/07/20 10:23:01;;;;;;;8.57;7.67;;;28.70;67.50;;;;;;5106801;28;20530;-80
2021/07/20 10:25:32;;;;;;;12.03;7.63;;;30.00;64.50;;;;;;5107018;28;20519;-80
2021/07/20 10:28:07;;;;;;;8.90;7.33;;;30.60;60.10;;;;;;5108079;28;20438;-80
2021/07/20 10:30:38;;;;;;;9.70;7.70;;;30.70;57.70;;;;;;5105264;28;20478;-80
2021/07/20 10:33:17;;;;;;;8.93;7.83;;;29.90;59.90;;;;;;5107175;28;20470;-80
2021/07/20 10:35:50;;;;;;;8.50;7.40;;;30.50;60.90;;;;;;5106940;28;20439;-81
2021/07/20 10:38:20;;;;;;;9.87;8.33;;;30.70;60.30;;;;;;5107246;28;20539;-80
2021/07/20 10:40:49;;;;;;;10.47;7.97;;;29.90;59.20;;;;;;5105906;28;20996;-80
2021/07/20 10:43:23;;;;;;;9.00;7.43;;;29.70;63.70;;;;;;5105678;28;20448;-80
2021/07/20 10:45:53;;;;;;;11.90;8.53;;;29.10;62.30;;;;;;5104212;28;20444;-80
2021/07/20 10:48:24;;;;;;;10.20;8.40;;;28.20;64.10;;;;;;5106799;28;20528;-80
2021/07/20 10:50:54;;;;;;;10.20;7.93;;;28.20;65.00;;;;;;5104439;28;20464;-80
2021/07/20 10:53:36;;;;;;;10.60;8.50;;;27.50;65.30;;;;;;5104433;28;20436;-80
2021/07/20 10:56:08;;;;;;;12.00;8.63;;;27.00;69.30;;;;;;5103023;28;20515;-80
2021/07/20 10:58:49;;;;;;;10.50;8.17;;;26.00;69.70;;;;;;5101752;28;20436;-78
2021/07/20 11:01:21;;;;;;;9.77;7.90;;;25.40;73.10;;;;;;5099561;28;20858;-77
2021/07/20 11:04:00;;;;;;;9.80;7.80;;;25.40;77.30;;;;;;5099647;28;20854;-78
2021/07/20 11:06:28;;;;;;;12.80;7.83;;;25.50;75.90;;;;;;5099139;28;20447;-77
2021/07/20 11:09:00;;;;;;;10.40;8.07;;;25.40;73.40;;;;;;5100062;28;20442;-78
2021/07/20 11:11:30;;;;;;;9.93;7.73;;;25.40;75.80;;;;;;5098429;28;20471;-78
2021/07/20 11:13:59;;;;;;;11.20;8.50;;;25.30;79.70;;;;;;5099335;28;20913;-78
2021/07/20 11:16:30;;;;;;;10.20;8.07;;;25.40;75.00;;;;;;5099139;28;20494;-78
2021/07/20 11:18:58;;;;;;;10.43;7.80;;;25.20;74.90;;;;;;5099621;28;20530;-78
2021/07/20 11:21:28;;;;;;;10.23;8.50;;;25.00;75.50;;;;;;5099690;28;20495;-77
2021/07/20 11:23:57;;;;;;;10.53;8.10;;;24.90;76.60;;;;;;5100119;28;20479;-77
2021/07/20 11:26:25;;;;;;;9.20;7.63;;;25.10;76.90;;;;;;5098819;28;20797;-77
2021/07/20 11:28:52;;;;;;;12.63;8.20;;;25.40;77.60;;;;;;5098820;28;20837;-77
2021/07/20 11:31:25;;;;;;;11.90;8.30;;;25.60;75.90;;;;;;5099706;28;20548;-77
2021/07/20 11:33:59;;;;;;;9.90;7.83;;;25.60;76.40;;;;;;5100319;28;20991;-77
2021/07/20 11:36:31;;;;;;;11.00;8.10;;;25.80;76.60;;;;;;5099054;28;20441;-78
2021/07/20 11:39:01;;;;;;;11.10;8.47;;;26.10;74.70;;;;;;5098149;28;20520;-78
2021/07/20 11:41:38;;;;;;;9.90;8.23;;;26.40;72.80;;;;;;5098450;28;20511;-78
2021/07/20 11:44:15;;;;;;;11.50;9.20;;;26.30;70.60;;;;;;5099229;28;20527;-79
2021/07/20 11:46:48;;;;;;;10.53;8.30;;;26.20;72.70;;;;;;5100475;28;20450;-79
2021/07/20 11:49:31;;;;;;;10.37;8.10;;;25.90;73.00;;;;;;5100263;28;20526;-79
2021/07/20 11:52:03;;;;;;;9.83;7.77;;;26.00;72.70;;;;;;5098383;28;20522;-79
2021/07/20 11:54:39;;;;;;;10.87;8.50;;;26.10;71.20;;;;;;5098490;28;20440;-78
2021/07/20 11:57:31;;;;;;;9.37;7.90;;;25.40;71.40;;;;;;5098172;28;20455;-78
2021/07/20 12:00:14;;;;;;;9.97;7.80;;;25.20;75.60;;;;;;5096930;28;20513;-79
2021/07/20 12:03:11;;;;;;;11.40;9.10;;;24.80;77.90;;;;;;5098544;28;20445;-79
2021/07/20 12:06:12;;;;;;;9.90;7.73;;;24.40;79.20;;;;;;5099270;28;20442;-79
2021/07/20 12:08:58;;;;;;;10.17;8.57;;;24.30;79.30;;;;;;5099448;28;20451;-79
2021/07/20 12:11:29;;;;;;;9.60;7.80;;;24.30;76.20;;;;;;5099334;28;20565;-79
2021/07/20 12:14:00;;;;;;;9.73;8.00;;;24.30;75.70;;;;;;5099260;28;20449;-79
2021/07/20 12:16:27;;;;;;;10.33;7.00;;;24.40;77.10;;;;;;5099666;28;20438;-80
2021/07/20 12:18:55;;;;;;;11.30;8.67;;;24.70;77.70;;;;;;5100081;28;20480;-79
2021/07/20 12:21:24;;;;;;;12.47;9.87;;;25.00;78.40;;;;;;5099950;28;20567;-79
2021/07/20 12:23:55;;;;;;;12.33;9.00;;;25.40;75.90;;;;;;5099711;28;20446;-79
2021/07/20 12:26:23;;;;;;;10.87;7.90;;;25.90;73.40;;;;;;5100634;28;20440;-79
2021/07/20 12:28:50;;;;;;;10.43;7.43;;;26.10;69.40;;;;;;5097874;28;20447;-80
2021/07/20 12:31:18;;;;;;;9.40;7.47;;;26.10;70.90;;;;;;5100196;28;20459;-79
2021/07/20 12:33:46;;;;;;;8.73;7.00;;;25.80;67.80;;;;;;5099766;28;20444;-79
2021/07/20 12:36:14;;;;;;;8.77;7.50;;;26.00;67.40;;;;;;5099388;28;20527;-79
2021/07/20 12:38:43;;;;;;;10.37;7.63;;;26.10;66.80;;;;;;5100175;28;20443;-79
2021/07/20 12:41:12;;;;;;;9.27;7.47;;;26.40;67.40;;;;;;5098420;28;20925;-80
2021/07/20 12:43:41;;;;;;;10.23;8.43;;;26.10;65.80;;;;;;5101542;28;20531;-79
2021/07/20 12:46:13;;;;;;;9.87;7.20;;;25.80;69.30;;;;;;5100570;28;20444;-79
2021/07/20 12:48:48;;;;;;;9.63;7.60;;;25.60;70.50;;;;;;5100592;28;20867;-80
2021/07/20 12:51:16;;;;;;;9.00;7.53;;;25.50;69.10;;;;;;5099547;28;20467;-79
2021/07/20 12:53:46;;;;;;;10.70;8.67;;;25.80;71.90;;;;;;5101149;28;20444;-79
2021/07/20 12:56:17;;;;;;;10.20;7.70;;;25.90;69.30;;;;;;5101428;28;20436;-79